Terminal Aerodrome Forecast
Issued by NWS Shreveport, LA

Current Version | Previous Version | Text Only | Print | Product List | Glossary On
Versions: 1 2 3 4 5 6 7 8 9 10 11 12 13 14
000
FTUS44 KSHV 182300
TAFSHV
TAF
KSHV 182326Z 1900/1924 05005KT P6SM FEW050
     FM190100 04003KT P6SM SKC
     FM191200 09003KT P6SM SCT250
     FM191600 10005KT P6SM SCT035 SCT250=

USA.gov is the U.S. government's official web portal to all federal, state and local government web resources and services.